Time;durP1;ratioP1;P1;durP2;ratioP2;P2;SDS_P1;SDS_P2;PMS_P1;PMS_P2;Temp;Humidity;BMP_temperature;BMP_pressure;BME280_temperature;BME280_humidity;BME280_pressure;Samples;Min_cycle;Max_cycle;Signal;HPM_P1;HPM_P2
2023/03/05 00:00:09;;;;;;;2.33;2.13;;;7.40;99.90;;;;;;5038603;28;20267;-64
2023/03/05 00:02:35;;;;;;;3.27;2.83;;;7.40;99.90;;;;;;5040091;28;20237;-64
2023/03/05 00:05:00;;;;;;;2.57;2.30;;;7.40;99.90;;;;;;5045652;28;20528;-64
2023/03/05 00:07:26;;;;;;;3.97;2.43;;;7.50;99.90;;;;;;5042759;28;20644;-64
2023/03/05 00:09:52;;;;;;;2.50;2.30;;;7.50;99.90;;;;;;5067209;28;20602;-64
2023/03/05 00:12:17;;;;;;;4.00;3.13;;;7.40;99.90;;;;;;5048737;28;20202;-64
2023/03/05 00:14:43;;;;;;;10.67;3.93;;;7.50;99.90;;;;;;5053641;28;20265;-64
2023/03/05 00:17:09;;;;;;;4.63;4.23;;;7.60;99.90;;;;;;5046112;28;20220;-68
2023/03/05 00:19:34;;;;;;;8.97;6.07;;;7.60;99.90;;;;;;5038382;28;20182;-64
2023/03/05 00:22:00;;;;;;;6.27;3.90;;;7.40;99.90;;;;;;5044225;28;20187;-64
2023/03/05 00:24:26;;;;;;;2.83;2.57;;;7.40;99.90;;;;;;5050284;28;20192;-64
2023/03/05 00:26:52;;;;;;;5.37;2.63;;;7.30;99.90;;;;;;5047083;28;20285;-64
2023/03/05 00:29:20;;;;;;;2.33;2.00;;;7.40;99.90;;;;;;5048008;28;20256;-64
2023/03/05 00:31:46;;;;;;;4.03;3.00;;;7.40;99.90;;;;;;5051715;28;20190;-64
2023/03/05 00:34:16;;;;;;;4.40;3.53;;;7.40;99.90;;;;;;5048501;28;20632;-64
2023/03/05 00:36:50;;;;;;;4.33;2.77;;;7.30;99.90;;;;;;5055289;28;20202;-64
2023/03/05 00:39:18;;;;;;;5.00;3.20;;;7.10;99.90;;;;;;5047993;28;20200;-64
2023/03/05 00:41:44;;;;;;;4.77;2.87;;;7.20;99.90;;;;;;5052583;28;20193;-64
2023/03/05 00:44:10;;;;;;;5.07;3.63;;;7.20;99.90;;;;;;5039861;28;20194;-64
2023/03/05 00:46:36;;;;;;;6.53;3.40;;;7.10;99.90;;;;;;5041520;28;20498;-64
2023/03/05 00:49:02;;;;;;;7.63;4.10;;;7.20;99.90;;;;;;5040687;28;20183;-64
2023/03/05 00:51:28;;;;;;;4.20;3.77;;;7.10;99.90;;;;;;5041793;28;20189;-64
2023/03/05 00:53:54;;;;;;;4.97;3.97;;;7.10;99.90;;;;;;5051696;28;20181;-67
2023/03/05 00:56:20;;;;;;;7.00;3.93;;;7.00;99.90;;;;;;5071397;28;20712;-65
2023/03/05 00:58:46;;;;;;;13.63;8.23;;;7.10;99.90;;;;;;5045719;28;20336;-64
2023/03/05 01:01:11;;;;;;;10.50;8.40;;;7.10;99.90;;;;;;5043460;28;20243;-66
2023/03/05 01:03:37;;;;;;;9.23;6.90;;;7.10;99.90;;;;;;5048578;28;20187;-64
2023/03/05 01:06:09;;;;;;;15.20;10.20;;;7.10;99.90;;;;;;5048106;28;20178;-64
2023/03/05 01:08:35;;;;;;;18.00;12.20;;;7.00;99.90;;;;;;5049300;28;20593;-65
2023/03/05 01:11:02;;;;;;;17.27;10.87;;;7.00;99.90;;;;;;5035396;28;20181;-63
2023/03/05 01:13:28;;;;;;;18.17;10.97;;;7.10;99.90;;;;;;5048027;28;20612;-64
2023/03/05 01:15:53;;;;;;;22.10;14.67;;;7.10;99.90;;;;;;5026056;28;20266;-64
2023/03/05 01:18:19;;;;;;;20.37;13.20;;;7.00;99.90;;;;;;5035438;28;20207;-64
2023/03/05 01:20:45;;;;;;;28.53;15.40;;;7.00;99.90;;;;;;5041831;28;20242;-64
2023/03/05 01:23:11;;;;;;;38.77;23.27;;;6.90;99.90;;;;;;5044525;28;20331;-64
2023/03/05 01:25:37;;;;;;;42.27;25.87;;;6.90;99.90;;;;;;5048829;28;20671;-64
2023/03/05 01:28:03;;;;;;;19.07;12.97;;;6.90;99.90;;;;;;5062960;28;20243;-65
2023/03/05 01:30:29;;;;;;;6.87;5.83;;;6.80;99.90;;;;;;5041338;28;20194;-64
2023/03/05 01:32:55;;;;;;;4.93;4.13;;;6.90;99.90;;;;;;5044221;28;20213;-65
2023/03/05 01:35:23;;;;;;;4.17;3.70;;;6.80;99.90;;;;;;5044221;28;20178;-65
2023/03/05 01:37:48;;;;;;;6.67;5.40;;;6.80;99.90;;;;;;5051230;28;20209;-64
2023/03/05 01:40:17;;;;;;;4.57;4.13;;;6.80;99.90;;;;;;5050833;28;20190;-65
2023/03/05 01:42:47;;;;;;;3.90;3.43;;;6.80;99.90;;;;;;5038919;28;20196;-64
2023/03/05 01:45:16;;;;;;;6.50;3.80;;;6.70;99.90;;;;;;5050962;28;20640;-64
2023/03/05 01:47:42;;;;;;;10.87;5.30;;;6.70;99.90;;;;;;5040515;28;20197;-64
2023/03/05 01:50:11;;;;;;;20.70;11.67;;;6.60;99.90;;;;;;5047896;28;20188;-64
2023/03/05 01:52:40;;;;;;;20.80;14.40;;;6.60;99.90;;;;;;5047699;28;20209;-64
2023/03/05 01:55:15;;;;;;;29.90;16.10;;;6.70;99.90;;;;;;5051815;28;20174;-64
2023/03/05 01:57:45;;;;;;;14.10;8.83;;;6.60;99.90;;;;;;5044047;28;20230;-64
2023/03/05 02:00:21;;;;;;;10.70;5.00;;;6.60;99.90;;;;;;5044548;28;20186;-64
2023/03/05 02:02:49;;;;;;;5.33;4.40;;;6.60;99.90;;;;;;5062516;28;20173;-65
2023/03/05 02:05:29;;;;;;;4.57;3.80;;;6.50;99.90;;;;;;5040856;28;20261;-67
2023/03/05 02:08:04;;;;;;;3.50;3.20;;;6.40;99.90;;;;;;5048004;28;20181;-66
2023/03/05 02:10:37;;;;;;;7.83;3.77;;;6.60;99.90;;;;;;5033186;28;20265;-70
2023/03/05 02:13:16;;;;;;;20.57;4.23;;;6.50;99.90;;;;;;5035019;28;20261;-65
2023/03/05 02:15:42;;;;;;;5.33;2.90;;;6.50;99.90;;;;;;5056505;28;20174;-64
2023/03/05 02:18:08;;;;;;;4.10;3.70;;;6.50;99.90;;;;;;5039638;28;20681;-66
2023/03/05 02:20:55;;;;;;;4.17;3.73;;;6.50;99.90;;;;;;5046236;28;20182;-64
2023/03/05 02:23:21;;;;;;;4.00;3.10;;;6.40;99.90;;;;;;5052181;28;20258;-64
2023/03/05 02:25:47;;;;;;;6.17;3.93;;;6.40;99.90;;;;;;5051002;28;20175;-68
2023/03/05 02:28:22;;;;;;;6.10;3.93;;;6.40;99.90;;;;;;5041397;28;20194;-64
2023/03/05 02:30:48;;;;;;;4.33;3.93;;;6.40;99.90;;;;;;5046136;28;20188;-64
2023/03/05 02:33:14;;;;;;;7.30;4.27;;;6.40;99.90;;;;;;5038141;28;20182;-64
2023/03/05 02:35:42;;;;;;;7.40;3.97;;;6.50;99.90;;;;;;5034886;28;20661;-64
2023/03/05 02:38:08;;;;;;;4.73;3.20;;;6.50;99.90;;;;;;5036296;28;20232;-67
2023/03/05 02:40:34;;;;;;;5.00;3.60;;;6.50;99.90;;;;;;5033306;28;20205;-64
2023/03/05 02:43:00;;;;;;;3.73;3.40;;;6.30;99.90;;;;;;5032309;28;20649;-64
2023/03/05 02:45:26;;;;;;;5.77;3.73;;;6.20;99.90;;;;;;5047418;28;20192;-65
2023/03/05 02:47:51;;;;;;;6.77;3.90;;;6.20;99.90;;;;;;5050035;28;20178;-64
2023/03/05 02:50:17;;;;;;;5.43;3.97;;;6.20;99.90;;;;;;5037658;28;20175;-64
2023/03/05 02:52:43;;;;;;;7.07;4.03;;;6.10;99.90;;;;;;5052438;28;20178;-64
2023/03/05 02:55:09;;;;;;;5.90;3.53;;;5.90;99.90;;;;;;5063671;28;20189;-65
2023/03/05 02:57:34;;;;;;;6.03;4.20;;;5.90;99.90;;;;;;5036036;28;20696;-64
2023/03/05 03:00:00;;;;;;;5.83;4.03;;;5.80;99.90;;;;;;5044241;28;20272;-64
2023/03/05 03:02:26;;;;;;;6.03;3.90;;;5.80;99.90;;;;;;5036064;28;20194;-64
2023/03/05 03:04:51;;;;;;;7.33;4.57;;;5.80;99.90;;;;;;5039431;28;20191;-64
2023/03/05 03:07:17;;;;;;;5.00;3.53;;;5.80;99.90;;;;;;5045089;28;20190;-64
2023/03/05 03:09:43;;;;;;;5.10;3.90;;;5.80;99.90;;;;;;5049715;28;20264;-64
2023/03/05 03:12:10;;;;;;;8.63;4.30;;;5.80;99.90;;;;;;5067181;28;20180;-65
2023/03/05 03:14:38;;;;;;;6.10;4.00;;;5.90;99.90;;;;;;5033920;28;20727;-64
2023/03/05 03:17:07;;;;;;;5.00;3.90;;;5.90;99.90;;;;;;5049426;28;20243;-64
2023/03/05 03:19:34;;;;;;;3.80;3.37;;;5.90;99.90;;;;;;5041353;28;20644;-64
2023/03/05 03:22:00;;;;;;;8.03;5.03;;;5.90;99.90;;;;;;5045098;28;20264;-64
2023/03/05 03:24:26;;;;;;;6.40;4.13;;;6.00;99.90;;;;;;5048881;28;20214;-64
2023/03/05 03:26:52;;;;;;;7.77;3.53;;;6.10;99.90;;;;;;5035749;28;20183;-64
2023/03/05 03:29:17;;;;;;;4.93;3.67;;;6.20;99.90;;;;;;5060118;28;20186;-65
2023/03/05 03:31:44;;;;;;;4.30;3.90;;;6.10;99.90;;;;;;5070518;28;20191;-64
2023/03/05 03:34:11;;;;;;;4.97;4.33;;;6.10;99.90;;;;;;5034283;28;20244;-64
2023/03/05 03:36:37;;;;;;;6.40;5.10;;;6.10;99.90;;;;;;5043527;28;20621;-64
2023/03/05 03:39:04;;;;;;;6.07;4.30;;;6.10;99.90;;;;;;5049550;28;20252;-64
2023/03/05 03:41:31;;;;;;;4.70;3.93;;;6.10;99.90;;;;;;5045596;28;20652;-64
2023/03/05 03:43:56;;;;;;;9.23;4.63;;;6.20;99.90;;;;;;5031052;28;20187;-64
2023/03/05 03:46:22;;;;;;;8.40;4.57;;;6.10;99.90;;;;;;5037241;28;20190;-64
2023/03/05 03:48:51;;;;;;;4.70;4.30;;;6.10;99.90;;;;;;5062678;28;20708;-64
2023/03/05 03:51:17;;;;;;;8.90;3.90;;;6.10;99.90;;;;;;5056478;28;20185;-64
2023/03/05 03:53:42;;;;;;;5.13;4.47;;;6.10;99.90;;;;;;5059455;28;20202;-64
2023/03/05 03:56:08;;;;;;;11.13;4.23;;;6.10;99.90;;;;;;5049788;28;20599;-64
2023/03/05 03:58:34;;;;;;;5.73;4.53;;;6.10;99.90;;;;;;5059111;28;20488;-64
2023/03/05 04:01:00;;;;;;;5.73;4.40;;;6.10;99.90;;;;;;5041191;28;20202;-64
2023/03/05 04:03:25;;;;;;;6.50;4.47;;;6.20;99.90;;;;;;5050429;28;20182;-64
2023/03/05 04:05:51;;;;;;;6.97;4.43;;;6.20;99.90;;;;;;5049654;28;20276;-64
2023/03/05 04:08:17;;;;;;;5.73;4.53;;;6.20;99.90;;;;;;5038291;28;20183;-64
2023/03/05 04:10:43;;;;;;;5.20;4.70;;;6.20;99.90;;;;;;5035556;28;20252;-64
2023/03/05 04:13:08;;;;;;;7.10;4.80;;;6.20;99.90;;;;;;5053374;28;20658;-64
2023/03/05 04:15:34;;;;;;;7.27;5.47;;;6.20;99.90;;;;;;5045209;28;20576;-65
2023/03/05 04:18:00;;;;;;;6.17;5.33;;;6.10;99.90;;;;;;5049128;28;20618;-64
2023/03/05 04:20:26;;;;;;;7.13;5.47;;;6.20;99.90;;;;;;5052219;28;20212;-64
2023/03/05 04:22:51;;;;;;;8.63;5.40;;;6.10;99.90;;;;;;5044786;28;20205;-64
2023/03/05 04:25:17;;;;;;;9.77;5.20;;;6.00;99.90;;;;;;5046493;28;20564;-64
2023/03/05 04:27:43;;;;;;;10.37;4.97;;;6.10;99.90;;;;;;5045476;28;20195;-64
2023/03/05 04:30:13;;;;;;;8.90;5.70;;;6.10;99.90;;;;;;5035082;28;20245;-64
2023/03/05 04:32:39;;;;;;;5.60;4.63;;;6.20;99.90;;;;;;5034874;28;20185;-64
2023/03/05 04:35:05;;;;;;;9.17;4.53;;;6.20;99.90;;;;;;5050729;28;20206;-64
2023/03/05 04:37:30;;;;;;;7.80;5.63;;;6.20;99.90;;;;;;5076490;28;20300;-64
2023/03/05 04:39:56;;;;;;;6.80;5.30;;;6.20;99.90;;;;;;5053851;28;20682;-64
2023/03/05 04:42:22;;;;;;;7.40;5.13;;;6.10;99.90;;;;;;5056614;28;20193;-64
2023/03/05 04:44:48;;;;;;;5.77;5.07;;;6.10;99.90;;;;;;5045679;28;20216;-64
2023/03/05 04:47:15;;;;;;;4.93;4.47;;;6.00;99.90;;;;;;5042428;28;20189;-64
2023/03/05 04:49:40;;;;;;;7.90;7.10;;;6.10;99.90;;;;;;5044150;28;20539;-64
2023/03/05 04:52:06;;;;;;;11.00;5.80;;;6.00;99.90;;;;;;5041688;28;20189;-63
2023/03/05 04:54:32;;;;;;;5.90;4.47;;;6.00;99.90;;;;;;5039479;28;20198;-64
2023/03/05 04:56:58;;;;;;;7.00;5.47;;;6.00;99.90;;;;;;5036543;28;20229;-64
2023/03/05 04:59:25;;;;;;;9.90;5.83;;;6.00;99.90;;;;;;5035247;28;20649;-64
2023/03/05 05:01:50;;;;;;;9.03;5.07;;;6.00;99.90;;;;;;5038947;28;20216;-69
2023/03/05 05:04:16;;;;;;;11.73;5.87;;;6.00;99.90;;;;;;5035812;28;20594;-64
2023/03/05 05:06:41;;;;;;;6.57;4.73;;;6.00;99.90;;;;;;5035949;28;20600;-64
2023/03/05 05:09:07;;;;;;;7.87;5.17;;;6.00;99.90;;;;;;5039810;28;20198;-64
2023/03/05 05:11:33;;;;;;;8.17;4.70;;;6.10;99.90;;;;;;5048533;28;20195;-64
2023/03/05 05:13:58;;;;;;;6.43;4.33;;;6.10;99.90;;;;;;5047568;28;20178;-64
2023/03/05 05:16:24;;;;;;;5.67;5.03;;;5.90;99.90;;;;;;5037289;28;20205;-64
2023/03/05 05:18:50;;;;;;;7.13;4.77;;;5.90;99.90;;;;;;5041784;28;20280;-64
2023/03/05 05:21:17;;;;;;;8.60;5.80;;;6.00;99.90;;;;;;5040256;28;20197;-64
2023/03/05 05:23:43;;;;;;;5.50;4.87;;;6.00;99.90;;;;;;5050233;28;20193;-64
2023/03/05 05:26:13;;;;;;;5.60;4.77;;;6.10;99.90;;;;;;5047522;28;20174;-67
2023/03/05 05:28:41;;;;;;;6.63;4.37;;;6.10;99.90;;;;;;5041938;28;20674;-64
2023/03/05 05:31:09;;;;;;;7.37;5.50;;;6.10;99.90;;;;;;5050100;28;20554;-64
2023/03/05 05:33:35;;;;;;;9.03;4.97;;;6.10;99.90;;;;;;5060209;28;20185;-64
2023/03/05 05:36:06;;;;;;;12.00;5.07;;;6.10;99.90;;;;;;5044733;28;20190;-64
2023/03/05 05:38:32;;;;;;;8.63;6.17;;;6.00;99.90;;;;;;5050545;28;20351;-64
2023/03/05 05:41:06;;;;;;;10.27;5.30;;;5.90;99.90;;;;;;5046965;28;20190;-64
2023/03/05 05:43:32;;;;;;;8.17;5.30;;;6.00;99.90;;;;;;5047219;28;20266;-64
2023/03/05 05:46:03;;;;;;;7.63;5.23;;;6.00;99.90;;;;;;5033567;28;20344;-64
2023/03/05 05:48:30;;;;;;;7.03;5.07;;;6.00;99.90;;;;;;5034876;28;20193;-64
2023/03/05 05:50:56;;;;;;;5.37;4.77;;;6.00;99.90;;;;;;5033628;28;20191;-64
2023/03/05 05:53:22;;;;;;;5.77;5.13;;;5.90;99.90;;;;;;5032649;28;20183;-67
2023/03/05 05:55:48;;;;;;;4.33;3.93;;;5.90;99.90;;;;;;5033389;28;20273;-64
2023/03/05 05:58:14;;;;;;;8.27;5.57;;;5.90;99.90;;;;;;5039227;28;20306;-64
2023/03/05 06:00:39;;;;;;;6.47;4.97;;;5.90;99.90;;;;;;5037082;28;20194;-64
2023/03/05 06:03:06;;;;;;;10.40;5.77;;;5.80;99.90;;;;;;5038422;28;20617;-64
2023/03/05 06:05:32;;;;;;;5.47;4.60;;;5.80;99.90;;;;;;5045976;28;20190;-68
2023/03/05 06:07:58;;;;;;;6.93;6.00;;;5.80;99.90;;;;;;5043404;28;20182;-64
2023/03/05 06:10:24;;;;;;;10.97;6.30;;;5.70;99.90;;;;;;5039710;28;20190;-64
2023/03/05 06:12:49;;;;;;;10.13;5.67;;;5.90;99.90;;;;;;5040236;28;20195;-64
2023/03/05 06:15:15;;;;;;;10.33;6.93;;;5.80;99.90;;;;;;5032752;28;20282;-73
2023/03/05 06:17:41;;;;;;;9.63;6.43;;;5.80;99.90;;;;;;5044508;28;20290;-64
2023/03/05 06:20:09;;;;;;;10.07;7.50;;;5.90;99.90;;;;;;5043719;28;20213;-64
2023/03/05 06:22:36;;;;;;;10.33;8.20;;;5.90;99.90;;;;;;5050228;28;20258;-64
2023/03/05 06:25:02;;;;;;;11.97;8.27;;;5.90;99.90;;;;;;5036196;28;20229;-63
2023/03/05 06:27:28;;;;;;;10.23;7.67;;;5.80;99.90;;;;;;5044175;28;20201;-65
2023/03/05 06:29:55;;;;;;;8.77;7.87;;;6.00;99.90;;;;;;5079113;28;20552;-64
2023/03/05 06:32:21;;;;;;;9.67;7.50;;;6.10;99.90;;;;;;5053434;28;20200;-64
2023/03/05 06:34:47;;;;;;;9.40;7.77;;;6.00;99.90;;;;;;5052907;28;20185;-64
2023/03/05 06:37:13;;;;;;;12.20;8.10;;;6.10;99.90;;;;;;5068338;28;20346;-65
2023/03/05 06:39:38;;;;;;;12.33;7.83;;;6.20;99.90;;;;;;5092752;28;20181;-64
2023/03/05 06:42:04;;;;;;;12.80;8.20;;;6.30;99.90;;;;;;5046797;28;20609;-64
2023/03/05 06:44:30;;;;;;;9.60;6.93;;;6.30;99.90;;;;;;5045266;28;20186;-64
2023/03/05 06:46:55;;;;;;;10.57;7.80;;;6.20;99.90;;;;;;5039256;28;20241;-64
2023/03/05 06:49:21;;;;;;;12.83;7.47;;;6.20;99.90;;;;;;5043246;28;20216;-64
2023/03/05 06:51:47;;;;;;;11.37;7.20;;;6.20;99.90;;;;;;5042327;28;20187;-63
2023/03/05 06:54:14;;;;;;;8.20;6.33;;;6.30;99.90;;;;;;5048230;28;20545;-64
2023/03/05 06:56:43;;;;;;;9.70;7.50;;;6.30;99.90;;;;;;5049984;28;20388;-64
2023/03/05 06:59:10;;;;;;;7.63;6.37;;;6.30;99.90;;;;;;5049527;28;20228;-64
2023/03/05 07:01:36;;;;;;;9.90;6.80;;;6.20;99.90;;;;;;5045985;28;20273;-64
2023/03/05 07:04:02;;;;;;;14.03;7.10;;;6.20;99.90;;;;;;5042676;28;20269;-63
2023/03/05 07:06:31;;;;;;;9.80;6.37;;;6.10;99.90;;;;;;5050494;28;20194;-63
2023/03/05 07:09:00;;;;;;;10.13;7.20;;;6.10;99.90;;;;;;5042607;28;20189;-63
2023/03/05 07:11:26;;;;;;;8.73;6.63;;;6.30;99.90;;;;;;5034831;28;20629;-64
2023/03/05 07:13:52;;;;;;;9.57;5.67;;;6.30;99.90;;;;;;5037030;28;20645;-64
2023/03/05 07:16:21;;;;;;;13.77;6.47;;;6.50;99.90;;;;;;5032194;28;20191;-63
2023/03/05 07:18:47;;;;;;;9.30;6.00;;;6.50;99.90;;;;;;5032903;28;20729;-63
2023/03/05 07:21:24;;;;;;;8.13;6.13;;;6.50;99.90;;;;;;5040865;28;20219;-64
2023/03/05 07:23:53;;;;;;;8.23;6.60;;;6.60;99.90;;;;;;5063431;28;20192;-64
2023/03/05 07:26:19;;;;;;;7.20;5.50;;;6.60;99.90;;;;;;5041968;28;20193;-63
2023/03/05 07:28:45;;;;;;;18.97;6.60;;;6.80;99.90;;;;;;5054432;28;20190;-64
2023/03/05 07:31:19;;;;;;;10.57;6.10;;;6.90;99.90;;;;;;5043210;28;20197;-63
2023/03/05 07:33:46;;;;;;;9.93;5.77;;;6.90;99.90;;;;;;5045402;28;20251;-64
2023/03/05 07:36:12;;;;;;;8.83;6.30;;;7.10;99.90;;;;;;5039254;28;20183;-64
2023/03/05 07:38:38;;;;;;;11.33;5.73;;;7.40;99.90;;;;;;5060107;28;20310;-64
2023/03/05 07:41:09;;;;;;;8.93;7.00;;;8.00;99.90;;;;;;5046168;28;20197;-64
2023/03/05 07:43:36;;;;;;;9.17;6.13;;;8.30;99.90;;;;;;5035583;28;20526;-64
2023/03/05 07:46:06;;;;;;;7.83;6.03;;;9.30;99.90;;;;;;5046472;28;20296;-65
2023/03/05 07:48:32;;;;;;;10.93;6.37;;;9.70;99.90;;;;;;5051745;28;20186;-64
2023/03/05 07:51:02;;;;;;;8.47;6.20;;;9.50;99.90;;;;;;5043833;28;20190;-66
2023/03/05 07:53:28;;;;;;;7.93;5.60;;;9.00;99.90;;;;;;5043147;28;20201;-64
2023/03/05 07:55:54;;;;;;;6.97;4.87;;;8.70;99.90;;;;;;5042632;28;20641;-64
2023/03/05 07:58:19;;;;;;;7.30;5.50;;;8.60;99.90;;;;;;5034838;28;20260;-64
2023/03/05 08:00:45;;;;;;;5.93;5.33;;;8.50;99.90;;;;;;5037771;28;20201;-64
2023/03/05 08:03:11;;;;;;;8.90;4.27;;;8.50;99.90;;;;;;5044705;28;20186;-64
2023/03/05 08:05:40;;;;;;;6.57;4.73;;;8.20;99.90;;;;;;5054761;28;20214;-64
2023/03/05 08:08:07;;;;;;;6.97;4.83;;;8.10;99.90;;;;;;5037866;28;20206;-64
2023/03/05 08:10:33;;;;;;;6.00;4.10;;;8.20;99.90;;;;;;5049345;28;20243;-64
2023/03/05 08:12:59;;;;;;;7.20;4.70;;;8.10;99.90;;;;;;5037839;28;20676;-64
2023/03/05 08:15:25;;;;;;;7.20;4.07;;;8.00;99.90;;;;;;5057367;28;20179;-63
2023/03/05 08:17:51;;;;;;;5.57;4.53;;;8.10;99.90;;;;;;5041677;28;20244;-64
2023/03/05 08:20:18;;;;;;;4.67;3.83;;;8.10;99.90;;;;;;5037493;28;20202;-64
2023/03/05 08:22:44;;;;;;;5.80;4.30;;;8.10;99.90;;;;;;5059802;28;20690;-63
2023/03/05 08:25:10;;;;;;;7.30;3.87;;;8.30;99.90;;;;;;5045337;28;20236;-64
2023/03/05 08:27:41;;;;;;;6.03;3.83;;;8.30;99.90;;;;;;5053907;28;20230;-63
2023/03/05 08:30:09;;;;;;;5.97;3.87;;;8.40;99.90;;;;;;5037289;28;20232;-63
2023/03/05 08:32:35;;;;;;;4.90;3.60;;;8.40;99.90;;;;;;5071089;28;20187;-63
2023/03/05 08:35:03;;;;;;;4.90;3.70;;;8.30;99.90;;;;;;5039354;28;20192;-67
2023/03/05 08:37:29;;;;;;;7.53;4.30;;;8.50;99.90;;;;;;5043556;28;20626;-65
2023/03/05 08:39:55;;;;;;;3.87;3.40;;;8.10;99.90;;;;;;5054384;28;20251;-62
2023/03/05 08:42:22;;;;;;;4.90;4.03;;;8.00;99.90;;;;;;5044490;28;20257;-64
2023/03/05 08:44:47;;;;;;;4.57;4.10;;;7.90;99.90;;;;;;5051815;28;20617;-62
2023/03/05 08:47:13;;;;;;;5.20;3.70;;;7.80;99.90;;;;;;5047887;28;20279;-64
2023/03/05 08:49:39;;;;;;;5.57;4.00;;;7.60;99.90;;;;;;5035744;28;20657;-62
2023/03/05 08:52:05;;;;;;;4.60;4.00;;;7.20;99.90;;;;;;5036352;28;20183;-63
2023/03/05 08:54:31;;;;;;;5.53;4.60;;;7.10;99.90;;;;;;5044831;28;20232;-64
2023/03/05 08:56:57;;;;;;;6.00;4.40;;;7.10;99.90;;;;;;5052095;28;20234;-63
2023/03/05 08:59:22;;;;;;;6.33;3.67;;;7.10;99.90;;;;;;5045971;28;20525;-64
2023/03/05 09:01:48;;;;;;;7.73;3.97;;;7.10;99.90;;;;;;5047096;28;20186;-64
2023/03/05 09:04:14;;;;;;;7.53;4.10;;;7.20;99.90;;;;;;5036474;28;20191;-64
2023/03/05 09:06:40;;;;;;;5.40;4.47;;;7.00;99.90;;;;;;5034193;28;20531;-62
2023/03/05 09:09:08;;;;;;;5.97;5.37;;;7.00;99.90;;;;;;5042392;28;20235;-63
2023/03/05 09:11:35;;;;;;;7.80;5.50;;;7.00;99.90;;;;;;5040771;28;20186;-62
2023/03/05 09:14:02;;;;;;;7.37;5.57;;;6.90;99.90;;;;;;5048021;28;20249;-62
2023/03/05 09:16:27;;;;;;;9.80;6.33;;;6.90;99.90;;;;;;5031951;28;20612;-63
2023/03/05 09:18:53;;;;;;;11.07;6.97;;;6.90;99.90;;;;;;5035476;28;20233;-66
2023/03/05 09:21:19;;;;;;;9.57;7.07;;;6.80;99.90;;;;;;5040687;28;20228;-63
2023/03/05 09:23:48;;;;;;;8.67;6.83;;;6.70;99.90;;;;;;5049063;28;20186;-63
2023/03/05 09:26:17;;;;;;;8.33;6.67;;;6.80;99.90;;;;;;5035277;28;20665;-64
2023/03/05 09:28:44;;;;;;;7.90;5.97;;;6.90;99.90;;;;;;5046958;28;20683;-63
2023/03/05 09:31:10;;;;;;;9.03;6.67;;;7.00;99.90;;;;;;5044131;28;20194;-62
2023/03/05 09:33:37;;;;;;;10.27;5.90;;;7.10;99.90;;;;;;5047723;28;20190;-70
2023/03/05 09:36:04;;;;;;;7.63;5.57;;;7.40;99.90;;;;;;5041161;28;20191;-63
2023/03/05 09:38:30;;;;;;;7.03;5.10;;;7.80;99.90;;;;;;5040371;28;20667;-62
2023/03/05 09:41:14;;;;;;;6.57;4.47;;;8.00;99.90;;;;;;5040688;28;20247;-65
2023/03/05 09:44:17;;;;;;;4.07;3.70;;;8.00;99.90;;;;;;5036364;28;20608;-63
2023/03/05 09:46:46;;;;;;;5.10;3.93;;;8.10;99.90;;;;;;5047533;28;20277;-67
2023/03/05 09:49:11;;;;;;;4.23;3.83;;;8.20;99.90;;;;;;5043040;28;20185;-62
2023/03/05 09:51:40;;;;;;;5.33;3.60;;;8.10;99.90;;;;;;5035416;28;20194;-64
2023/03/05 09:54:24;;;;;;;5.27;3.33;;;8.10;99.90;;;;;;5045785;28;20194;-63
2023/03/05 09:56:57;;;;;;;10.90;5.70;;;8.20;99.90;;;;;;5043713;28;20767;-63
2023/03/05 09:59:42;;;;;;;4.17;3.37;;;8.30;99.90;;;;;;5039248;28;20194;-62
2023/03/05 10:02:18;;;;;;;3.60;3.30;;;8.40;99.90;;;;;;5035473;28;20261;-61
2023/03/05 10:05:07;;;;;;;6.77;4.00;;;8.40;99.90;;;;;;5047166;28;20217;-64
2023/03/05 10:07:40;;;;;;;4.17;3.57;;;8.50;99.90;;;;;;5042045;28;20566;-64
2023/03/05 10:10:24;;;;;;;4.33;3.23;;;8.60;99.90;;;;;;5044577;28;20186;-64
2023/03/05 10:13:04;;;;;;;4.40;3.10;;;8.50;99.90;;;;;;5048121;28;20186;-63
2023/03/05 10:15:59;;;;;;;2.63;2.43;;;8.40;99.90;;;;;;5047554;28;20182;-63
2023/03/05 10:18:50;;;;;;;4.07;2.33;;;8.40;99.90;;;;;;5042262;28;20255;-63
2023/03/05 10:21:45;;;;;;;1.93;1.83;;;8.50;99.90;;;;;;5045428;28;20182;-64
2023/03/05 10:24:15;;;;;;;3.37;2.47;;;8.50;99.90;;;;;;5047196;28;20240;-64
2023/03/05 10:27:06;;;;;;;2.63;2.10;;;8.40;99.90;;;;;;5050634;28;20178;-63
2023/03/05 10:29:41;;;;;;;1.63;1.50;;;8.60;99.90;;;;;;5076108;28;20187;-63
2023/03/05 10:32:33;;;;;;;1.57;1.47;;;8.60;99.90;;;;;;5043399;28;20541;-63
2023/03/05 10:35:11;;;;;;;1.63;1.10;;;8.50;99.90;;;;;;5040477;28;20197;-72
2023/03/05 10:37:46;;;;;;;1.37;1.27;;;8.20;99.90;;;;;;5040933;28;20248;-64
2023/03/05 10:40:17;;;;;;;3.00;1.83;;;8.20;99.90;;;;;;5042601;28;20235;-64
2023/03/05 10:43:06;;;;;;;2.10;1.90;;;8.40;99.90;;;;;;5035621;28;20257;-65
2023/03/05 10:45:39;;;;;;;1.40;1.40;;;8.40;99.90;;;;;;5037443;28;20182;-64
2023/03/05 10:48:24;;;;;;;1.83;1.70;;;8.50;99.90;;;;;;5044391;28;20190;-64
2023/03/05 10:51:03;;;;;;;1.43;1.33;;;8.70;99.90;;;;;;5040376;28;20194;-65
2023/03/05 10:53:33;;;;;;;2.30;1.40;;;9.00;99.90;;;;;;5046809;28;20193;-64
2023/03/05 10:56:05;;;;;;;2.37;1.50;;;9.40;99.90;;;;;;5048982;28;20228;-64
2023/03/05 10:58:32;;;;;;;1.90;1.27;;;9.60;99.90;;;;;;5042849;28;20205;-65
2023/03/05 11:01:20;;;;;;;2.53;0.90;;;9.70;99.90;;;;;;5049999;28;20277;-66
2023/03/05 11:03:55;;;;;;;2.40;1.00;;;9.50;99.90;;;;;;5050512;28;20190;-66
2023/03/05 11:06:41;;;;;;;4.78;1.02;;;9.30;99.90;;;;;;5047353;28;20227;-65
2023/03/05 11:09:31;;;;;;;1.30;1.20;;;9.60;99.90;;;;;;5046148;28;20178;-65
2023/03/05 11:12:18;;;;;;;3.17;1.30;;;9.90;99.90;;;;;;5047062;28;20186;-66
2023/03/05 11:15:21;;;;;;;1.98;1.70;;;9.90;99.90;;;;;;5037859;28;20321;-66
2023/03/05 11:18:04;;;;;;;2.03;1.17;;;10.20;99.90;;;;;;5044802;28;20626;-67
2023/03/05 11:20:32;;;;;;;5.53;1.40;;;10.30;99.90;;;;;;5070301;28;20219;-67
2023/03/05 11:23:04;;;;;;;1.60;1.50;;;10.30;99.90;;;;;;5050346;28;20644;-67
2023/03/05 11:25:32;;;;;;;1.55;1.45;;;10.50;99.90;;;;;;5041735;28;20581;-66
2023/03/05 11:28:01;;;;;;;2.88;1.63;;;10.20;99.90;;;;;;5036832;28;20220;-67
2023/03/05 11:30:34;;;;;;;1.92;1.73;;;10.30;99.90;;;;;;5049142;28;20213;-68
2023/03/05 11:33:09;;;;;;;2.58;1.80;;;10.10;99.90;;;;;;5060595;28;20547;-68
2023/03/05 11:35:38;;;;;;;2.05;1.95;;;10.10;99.90;;;;;;5037033;28;20185;-68
2023/03/05 11:38:06;;;;;;;3.47;2.22;;;9.90;99.90;;;;;;5041310;28;20259;-66
2023/03/05 11:40:36;;;;;;;2.67;2.03;;;9.90;99.90;;;;;;5044903;28;20213;-65
2023/03/05 11:43:03;;;;;;;2.42;1.95;;;9.90;99.90;;;;;;5037959;28;20606;-66
2023/03/05 11:45:31;;;;;;;5.43;2.08;;;10.00;99.90;;;;;;5039196;28;20186;-66
2023/03/05 11:48:12;;;;;;;2.60;2.40;;;10.30;99.90;;;;;;5039286;28;20236;-67
2023/03/05 11:50:40;;;;;;;3.10;2.53;;;10.20;99.90;;;;;;5034653;28;20187;-66
2023/03/05 11:53:12;;;;;;;4.55;2.70;;;10.40;99.90;;;;;;5040485;28;20179;-67
2023/03/05 11:55:50;;;;;;;3.53;3.13;;;10.50;99.90;;;;;;5032011;28;20183;-66
2023/03/05 11:58:25;;;;;;;4.00;3.40;;;10.30;99.90;;;;;;5037733;28;20213;-67
2023/03/05 12:00:51;;;;;;;6.13;4.60;;;10.50;99.90;;;;;;5057605;28;20276;-66
2023/03/05 12:03:21;;;;;;;7.03;4.63;;;10.40;99.90;;;;;;5038294;28;20274;-66
2023/03/05 12:05:57;;;;;;;4.55;3.53;;;10.60;99.90;;;;;;5041818;28;20235;-65
2023/03/05 12:08:30;;;;;;;9.67;4.90;;;10.30;99.90;;;;;;5035618;28;20186;-66
2023/03/05 12:11:17;;;;;;;7.20;4.90;;;9.80;99.90;;;;;;5038751;28;20270;-66
2023/03/05 12:13:55;;;;;;;6.68;4.15;;;9.90;99.90;;;;;;5044966;28;20183;-66
2023/03/05 12:16:25;;;;;;;9.75;5.40;;;9.90;99.90;;;;;;5049989;28;20189;-66
2023/03/05 12:18:53;;;;;;;11.68;6.10;;;10.00;99.90;;;;;;5036368;28;20206;-68
2023/03/05 12:21:40;;;;;;;6.10;5.40;;;10.10;99.90;;;;;;5040124;28;20217;-65
2023/03/05 12:24:24;;;;;;;7.85;5.63;;;10.10;99.90;;;;;;5038448;28;20190;-67
2023/03/05 12:26:54;;;;;;;8.43;6.07;;;9.60;99.90;;;;;;5040332;28;20200;-67
2023/03/05 12:29:49;;;;;;;6.27;5.20;;;9.40;99.90;;;;;;5047378;28;20201;-66
2023/03/05 12:32:33;;;;;;;6.30;4.73;;;9.10;99.90;;;;;;5050429;28;20181;-66
2023/03/05 12:35:24;;;;;;;7.50;5.40;;;8.80;99.90;;;;;;5057645;28;20162;-66
2023/03/05 12:37:50;;;;;;;5.73;4.03;;;8.40;99.90;;;;;;5041030;28;20711;-66
2023/03/05 12:40:18;;;;;;;4.07;3.47;;;8.40;99.90;;;;;;5055161;28;20208;-66
2023/03/05 12:42:53;;;;;;;7.40;4.80;;;8.50;99.90;;;;;;5049290;28;20183;-65
2023/03/05 12:45:54;;;;;;;5.20;3.53;;;8.10;99.90;;;;;;5054301;28;20262;-66
2023/03/05 12:48:20;;;;;;;5.67;4.13;;;8.00;99.90;;;;;;4987094;28;20206;-65
2023/03/05 12:50:46;;;;;;;5.17;3.73;;;8.10;99.90;;;;;;5034403;28;20198;-67
2023/03/05 12:53:17;;;;;;;3.20;2.90;;;8.40;99.90;;;;;;5062958;28;20194;-65
2023/03/05 12:55:46;;;;;;;3.63;2.87;;;8.50;99.90;;;;;;5048621;28;20685;-67
2023/03/05 12:58:31;;;;;;;5.20;3.70;;;8.60;99.90;;;;;;5043373;28;20609;-68
2023/03/05 13:01:03;;;;;;;5.60;3.00;;;8.40;99.90;;;;;;5041060;28;20186;-68
2023/03/05 13:03:38;;;;;;;2.97;2.77;;;8.50;99.90;;;;;;5049356;28;20182;-67
2023/03/05 13:06:06;;;;;;;4.37;2.50;;;8.60;99.90;;;;;;5043881;28;20181;-67